Time;durP1;ratioP1;P1;durP2;ratioP2;P2;SDS_P1;SDS_P2;PMS_P1;PMS_P2;Temp;Humidity;BMP_temperature;BMP_pressure;BME280_temperature;BME280_humidity;BME280_pressure;Samples;Min_cycle;Max_cycle;Signal;HPM_P1;HPM_P2
2022/01/22 00:00:31;;;;;;;1.67;1.40;;;-8.10;99.90;;;;;;5052810;28;20040;-68
2022/01/22 00:02:57;;;;;;;3.47;1.35;;;-8.10;99.90;;;;;;5052989;28;20103;-68
2022/01/22 00:05:23;;;;;;;2.75;1.40;;;-8.20;99.90;;;;;;5052973;28;20524;-68
2022/01/22 00:07:49;;;;;;;3.22;1.83;;;-8.20;99.90;;;;;;5052504;28;20429;-68
2022/01/22 00:10:18;;;;;;;3.67;1.50;;;-8.20;99.90;;;;;;5052611;28;20032;-68
2022/01/22 00:15:16;;;;;;;2.42;1.50;;;-8.10;99.90;;;;;;5052625;28;20060;-68
2022/01/22 00:17:42;;;;;;;3.40;1.38;;;-8.10;99.90;;;;;;5052281;28;20025;-69
2022/01/22 00:20:10;;;;;;;3.03;1.50;;;-8.00;99.90;;;;;;5052546;28;20075;-68
2022/01/22 00:22:36;;;;;;;4.85;1.80;;;-8.00;99.90;;;;;;5052103;28;20642;-69
2022/01/22 00:25:07;;;;;;;1.60;1.42;;;-8.20;99.90;;;;;;5052435;28;20078;-69
2022/01/22 00:27:33;;;;;;;1.50;1.38;;;-8.40;99.90;;;;;;5052147;28;20025;-69
2022/01/22 00:29:59;;;;;;;2.80;1.20;;;-8.50;99.90;;;;;;5052356;28;20025;-69
2022/01/22 00:32:24;;;;;;;1.50;1.40;;;-8.70;99.90;;;;;;5052215;28;20032;-69
2022/01/22 00:34:50;;;;;;;2.03;1.48;;;-8.80;99.90;;;;;;5052238;28;20032;-68
2022/01/22 00:37:16;;;;;;;2.33;1.40;;;-8.90;99.90;;;;;;5051903;28;20025;-69
2022/01/22 00:39:41;;;;;;;2.05;1.40;;;-8.90;99.90;;;;;;5052236;28;20408;-68
2022/01/22 00:42:12;;;;;;;3.92;1.33;;;-8.90;99.90;;;;;;5051655;28;20594;-69
2022/01/22 00:44:37;;;;;;;;;;;-8.90;99.90;;;;;;5052514;28;20048;-68
2022/01/22 00:47:04;;;;;;;2.42;1.38;;;-9.00;99.90;;;;;;5051950;28;19905;-69
2022/01/22 00:49:30;;;;;;;2.17;1.25;;;-9.00;99.90;;;;;;5067269;28;20029;-68
2022/01/22 00:51:57;;;;;;;3.17;1.63;;;-8.90;99.90;;;;;;5051917;28;20485;-69
2022/01/22 00:54:23;;;;;;;3.08;1.50;;;-8.90;99.90;;;;;;5051929;28;20040;-68
2022/01/22 00:56:49;;;;;;;2.63;1.60;;;-8.80;99.90;;;;;;5051912;28;20021;-69
2022/01/22 00:59:15;;;;;;;1.33;1.27;;;-8.70;99.90;;;;;;5051940;28;20428;-68
2022/01/22 01:01:41;;;;;;;6.20;1.67;;;-8.70;99.90;;;;;;5051792;28;20021;-69
2022/01/22 01:04:09;;;;;;;1.55;1.45;;;-8.70;99.90;;;;;;5051853;28;20040;-68
2022/01/22 01:06:35;;;;;;;1.88;1.50;;;-8.70;99.90;;;;;;5051708;28;20036;-68
2022/01/22 01:09:04;;;;;;;2.00;1.30;;;-8.80;99.90;;;;;;5051760;28;20061;-69
2022/01/22 01:11:32;;;;;;;4.50;1.75;;;-8.80;99.90;;;;;;5051805;28;20400;-68
2022/01/22 01:14:01;;;;;;;1.58;1.48;;;-8.80;99.90;;;;;;5050304;28;20482;-69
2022/01/22 01:17:35;;;;;;;2.53;1.48;;;-8.70;99.90;;;;;;5051965;28;20028;-68
2022/01/22 01:33:03;;;;;;;2.83;1.50;;;-8.60;99.90;;;;;;5051630;28;20226;-68
2022/01/22 01:35:30;;;;;;;1.48;1.38;;;-8.70;99.90;;;;;;5051776;28;20037;-68
2022/01/22 01:37:59;;;;;;;4.07;1.50;;;-8.70;99.90;;;;;;5051100;28;20115;-68
2022/01/22 01:40:26;;;;;;;4.00;1.60;;;-8.80;99.90;;;;;;5051484;28;20021;-68
2022/01/22 01:45:24;;;;;;;2.65;1.50;;;-8.70;99.90;;;;;;5051785;28;20032;-68
2022/01/22 01:47:58;;;;;;;4.50;1.85;;;-8.60;99.90;;;;;;5051339;28;20021;-68
2022/01/22 01:50:25;;;;;;;1.58;1.45;;;-8.60;99.90;;;;;;5051358;28;20036;-68
2022/01/22 01:53:06;;;;;;;3.03;1.73;;;-8.70;99.90;;;;;;5052057;28;20033;-68
2022/01/22 01:58:19;;;;;;;4.40;1.83;;;-8.70;99.90;;;;;;5014003;28;20065;-68
2022/01/22 02:00:45;;;;;;;1.70;1.60;;;-8.70;99.90;;;;;;5054987;28;20106;-68
2022/01/22 02:03:12;;;;;;;3.08;1.80;;;-8.70;99.90;;;;;;5055011;28;20032;-68
2022/01/22 02:05:39;;;;;;;3.25;1.70;;;-8.70;99.90;;;;;;5054830;28;20032;-75
2022/01/22 02:08:05;;;;;;;2.78;1.73;;;-8.70;99.90;;;;;;5054886;28;20021;-70
2022/01/22 02:10:36;;;;;;;2.22;1.60;;;-8.70;99.90;;;;;;5055119;28;20085;-71
2022/01/22 02:24:00;;;;;;;3.63;1.90;;;-8.50;99.90;;;;;;5054711;28;20039;-71
2022/01/22 02:55:31;;;;;;;6.30;1.70;;;-8.30;99.90;;;;;;5053926;28;20049;-72
2022/01/22 02:57:57;;;;;;;4.32;1.73;;;-8.20;99.90;;;;;;5053857;28;20017;-72
2022/01/22 03:00:23;;;;;;;2.60;1.40;;;-8.20;99.90;;;;;;5053957;28;20468;-71
2022/01/22 03:02:50;;;;;;;2.50;1.63;;;-8.20;99.90;;;;;;5053797;28;20024;-71
2022/01/22 03:37:28;;;;;;;1.70;1.38;;;-8.00;99.90;;;;;;5633123;22;20152;-70
2022/01/22 03:39:55;;;;;;;3.35;1.65;;;-8.00;99.90;;;;;;5053227;28;20096;-72
2022/01/22 03:42:21;;;;;;;3.63;1.52;;;-8.00;99.90;;;;;;5053071;28;20024;-70
2022/01/22 03:44:47;;;;;;;4.97;2.00;;;-8.00;99.90;;;;;;5053123;28;20016;-70
2022/01/22 03:47:13;;;;;;;2.58;1.50;;;-8.00;99.90;;;;;;5057578;28;20536;-70
2022/01/22 03:49:39;;;;;;;3.00;1.75;;;-8.00;99.90;;;;;;5054348;28;20027;-70
2022/01/22 03:52:05;;;;;;;2.95;1.60;;;-8.00;99.90;;;;;;5052987;28;20096;-70
2022/01/22 03:54:31;;;;;;;1.50;1.40;;;-8.00;99.90;;;;;;5053291;28;20071;-70
2022/01/22 03:56:56;;;;;;;2.83;1.65;;;-8.00;99.90;;;;;;5052805;28;20028;-72
2022/01/22 03:59:22;;;;;;;1.48;1.30;;;-8.00;99.90;;;;;;5051879;28;20029;-72
2022/01/22 04:04:21;;;;;;;1.65;1.40;;;-8.00;99.90;;;;;;5052915;28;20068;-72
2022/01/22 04:09:34;;;;;;;1.52;1.30;;;-8.00;99.90;;;;;;5052859;28;19911;-71
2022/01/22 04:12:01;;;;;;;2.30;1.60;;;-8.00;99.90;;;;;;5051257;28;20601;-72
2022/01/22 04:14:32;;;;;;;3.17;1.60;;;-8.00;99.90;;;;;;5068009;28;20046;-71
2022/01/22 04:24:57;;;;;;;6.00;1.40;;;-8.00;99.90;;;;;;5052511;28;20098;-72
2022/01/22 04:27:24;;;;;;;3.63;1.70;;;-8.00;99.90;;;;;;5052471;28;20021;-71
2022/01/22 04:29:58;;;;;;;6.25;1.85;;;-7.90;99.90;;;;;;5052759;28;20036;-72
2022/01/22 04:32:28;;;;;;;2.30;1.33;;;-7.90;99.90;;;;;;5052607;28;20032;-72
2022/01/22 04:34:54;;;;;;;6.25;1.60;;;-7.80;99.90;;;;;;5067590;28;20402;-73
2022/01/22 04:37:22;;;;;;;2.28;1.40;;;-7.80;99.90;;;;;;5051905;28;20037;-71
2022/01/22 04:39:48;;;;;;;2.95;1.50;;;-7.80;99.90;;;;;;5052418;28;20099;-72
2022/01/22 04:42:15;;;;;;;3.45;1.40;;;-7.80;99.90;;;;;;5052209;28;20017;-72
2022/01/22 04:47:28;;;;;;;2.47;1.52;;;-7.70;99.90;;;;;;5051984;28;20024;-73
2022/01/22 04:54:57;;;;;;;3.67;1.40;;;-7.70;99.90;;;;;;5052020;28;20108;-71
2022/01/22 04:55:27;;;;;;;3.17;1.63;;;-7.60;99.90;;;;;;5051996;28;20032;-73
2022/01/22 04:57:52;;;;;;;4.38;1.48;;;-7.70;99.90;;;;;;5050687;28;20025;-70
2022/01/22 05:00:18;;;;;;;4.00;1.50;;;-7.60;99.90;;;;;;5052033;28;20029;-73
2022/01/22 05:02:44;;;;;;;2.38;1.58;;;-7.60;99.90;;;;;;5051862;28;20021;-70
2022/01/22 05:05:10;;;;;;;4.05;1.77;;;-7.60;99.90;;;;;;5051942;28;20036;-70
2022/01/22 05:07:36;;;;;;;1.38;1.30;;;-7.60;99.90;;;;;;5052029;28;20017;-70
2022/01/22 05:10:02;;;;;;;1.25;1.20;;;-7.60;99.90;;;;;;5051936;28;20033;-70
2022/01/22 05:12:28;;;;;;;3.13;1.42;;;-7.60;99.90;;;;;;5052076;28;20028;-70
2022/01/22 05:14:54;;;;;;;8.13;1.60;;;-7.60;99.90;;;;;;5051809;28;20112;-70
2022/01/22 05:17:20;;;;;;;2.55;1.50;;;-7.60;99.90;;;;;;5051557;28;20056;-70
2022/01/22 05:20:20;;;;;;;3.42;1.58;;;-7.60;99.90;;;;;;5051777;28;20029;-70
2022/01/22 05:22:59;;;;;;;1.50;1.40;;;-7.60;99.90;;;;;;5048601;28;20128;-69
2022/01/22 05:25:38;;;;;;;7.85;1.60;;;-7.60;99.90;;;;;;5052047;28;20438;-74
2022/01/22 05:38:22;;;;;;;1.70;1.42;;;-7.30;99.90;;;;;;5055021;28;20084;-66
2022/01/22 05:40:49;;;;;;;9.27;1.50;;;-7.20;99.90;;;;;;5061957;28;20059;-65
2022/01/22 05:43:15;;;;;;;12.05;1.67;;;-6.00;99.90;;;;;;5073296;28;20032;-69
2022/01/22 05:45:41;;;;;;;7.03;1.70;;;-4.90;99.90;;;;;;5075120;28;20390;-70
2022/01/22 05:48:07;;;;;;;12.15;1.90;;;-5.10;99.90;;;;;;5074783;28;20099;-69
2022/01/22 05:50:56;;;;;;;1.73;1.50;;;-5.50;99.90;;;;;;5073165;28;20013;-70
2022/01/22 06:01:15;;;;;;;4.15;1.40;;;-6.40;99.90;;;;;;5034836;28;20049;-69
2022/01/22 06:03:42;;;;;;;2.40;1.60;;;-6.40;99.90;;;;;;5074561;28;20413;-68
2022/01/22 06:06:08;;;;;;;6.57;1.60;;;-6.50;99.90;;;;;;5074266;28;20016;-68
2022/01/22 06:08:39;;;;;;;3.00;1.40;;;-6.50;99.90;;;;;;5073017;28;20039;-68
2022/01/22 06:11:09;;;;;;;4.07;1.45;;;-6.50;99.90;;;;;;5072357;28;20023;-69
2022/01/22 06:13:44;;;;;;;2.03;1.60;;;-6.50;99.90;;;;;;5074082;28;20533;-71
2022/01/22 06:16:18;;;;;;;3.42;1.40;;;-6.50;99.90;;;;;;5073909;28;20075;-69
2022/01/22 06:18:44;;;;;;;6.65;1.95;;;-6.40;99.90;;;;;;5066286;28;21032;-68
2022/01/22 06:21:10;;;;;;;1.40;1.30;;;-6.40;99.90;;;;;;5074557;28;20028;-69
2022/01/22 06:23:40;;;;;;;1.70;1.50;;;-6.30;99.90;;;;;;5074638;28;20031;-65
2022/01/22 06:26:07;;;;;;;2.77;1.60;;;-5.90;99.90;;;;;;5074573;28;20016;-65
2022/01/22 06:28:34;;;;;;;6.78;1.70;;;-5.30;99.90;;;;;;5074815;28;20031;-65
2022/01/22 06:31:00;;;;;;;3.42;1.50;;;-5.30;99.90;;;;;;5074858;28;20025;-65
2022/01/22 06:33:27;;;;;;;2.60;1.60;;;-5.40;99.90;;;;;;5074399;28;20464;-65
2022/01/22 06:35:53;;;;;;;2.08;1.42;;;-5.40;99.90;;;;;;5074709;28;20056;-65
2022/01/22 06:38:19;;;;;;;5.00;1.55;;;-5.40;99.90;;;;;;5073861;28;20048;-65
2022/01/22 06:43:31;;;;;;;3.50;1.40;;;-5.40;99.90;;;;;;5074615;28;20042;-65
2022/01/22 06:45:58;;;;;;;2.55;1.48;;;-5.30;99.90;;;;;;5074611;28;20024;-65
2022/01/22 06:48:23;;;;;;;4.05;1.48;;;-5.30;99.90;;;;;;5074049;28;20029;-65
2022/01/22 06:50:50;;;;;;;3.42;1.73;;;-5.20;99.90;;;;;;5074272;28;20035;-65
2022/01/22 06:53:16;;;;;;;8.25;2.03;;;-5.20;99.90;;;;;;5073460;28;20056;-70
2022/01/22 06:55:46;;;;;;;3.85;1.50;;;-5.10;99.90;;;;;;5073691;28;20105;-69
2022/01/22 06:58:12;;;;;;;3.13;1.70;;;-5.10;99.90;;;;;;5073431;28;20016;-69
2022/01/22 07:00:38;;;;;;;5.80;1.50;;;-5.10;99.90;;;;;;5072600;28;20035;-69
2022/01/22 07:03:04;;;;;;;4.90;1.70;;;-4.80;99.90;;;;;;5073981;28;20059;-69
2022/01/22 07:05:30;;;;;;;7.03;1.60;;;-4.60;99.90;;;;;;5074094;28;20516;-70
2022/01/22 07:07:56;;;;;;;5.18;2.15;;;-4.70;99.90;;;;;;5073937;28;20028;-69
2022/01/22 07:10:22;;;;;;;3.92;1.88;;;-4.90;99.90;;;;;;5073873;28;20025;-70
2022/01/22 07:12:48;;;;;;;2.10;1.60;;;-5.00;99.90;;;;;;5073811;28;20017;-70
2022/01/22 07:15:15;;;;;;;4.10;1.63;;;-5.10;99.90;;;;;;5073704;28;20036;-74
2022/01/22 07:17:40;;;;;;;3.97;1.85;;;-5.20;99.90;;;;;;5073458;28;20025;-70
2022/01/22 07:20:16;;;;;;;4.80;1.80;;;-5.20;99.90;;;;;;5070806;28;20085;-72
2022/01/22 07:22:52;;;;;;;7.32;1.80;;;-5.20;99.90;;;;;;5071753;28;20049;-71
2022/01/22 07:25:18;;;;;;;14.30;1.90;;;-5.20;99.90;;;;;;5073007;28;20021;-67
2022/01/22 07:27:45;;;;;;;3.38;1.60;;;-5.20;99.90;;;;;;5073055;28;20021;-67
2022/01/22 07:30:12;;;;;;;2.78;1.70;;;-5.20;99.90;;;;;;5072708;28;20441;-69
2022/01/22 07:32:41;;;;;;;2.03;1.50;;;-5.20;99.90;;;;;;5072071;28;20025;-68
2022/01/22 07:35:09;;;;;;;4.88;1.70;;;-5.20;99.90;;;;;;5072514;28;20123;-69
2022/01/22 07:37:36;;;;;;;8.05;1.70;;;-5.10;99.90;;;;;;5072775;28;20055;-69
2022/01/22 07:40:08;;;;;;;5.22;1.80;;;-5.10;99.90;;;;;;5073151;28;20037;-68
2022/01/22 07:42:34;;;;;;;2.78;1.77;;;-5.10;99.90;;;;;;5071591;28;20025;-69
2022/01/22 07:45:01;;;;;;;13.35;1.80;;;-5.10;99.90;;;;;;5072809;28;20048;-72
2022/01/22 07:47:26;;;;;;;4.47;1.77;;;-5.00;99.90;;;;;;5072829;28;20029;-71
2022/01/22 07:49:52;;;;;;;5.15;1.33;;;-5.00;99.90;;;;;;5072623;28;20047;-70
2022/01/22 07:52:18;;;;;;;6.25;1.73;;;-5.00;99.90;;;;;;5072322;28;20032;-66
2022/01/22 07:54:44;;;;;;;3.47;1.50;;;-5.00;99.90;;;;;;5071373;28;20032;-66
2022/01/22 07:57:11;;;;;;;5.32;1.65;;;-4.90;99.90;;;;;;5072856;28;20049;-67
2022/01/22 07:59:37;;;;;;;5.93;1.50;;;-5.00;99.90;;;;;;5071302;28;20403;-66
2022/01/22 08:02:04;;;;;;;3.67;1.90;;;-5.00;99.90;;;;;;5072375;28;20045;-66
2022/01/22 08:04:30;;;;;;;5.03;2.00;;;-5.00;99.90;;;;;;5072323;28;20103;-67
2022/01/22 08:06:59;;;;;;;2.97;1.65;;;-4.90;99.90;;;;;;5072740;28;20109;-67
2022/01/22 08:09:24;;;;;;;6.85;1.85;;;-4.90;99.90;;;;;;5071982;28;20064;-67
2022/01/22 08:11:50;;;;;;;2.97;1.55;;;-4.80;99.90;;;;;;5072212;28;20051;-66
2022/01/22 08:14:17;;;;;;;8.07;1.67;;;-4.80;99.90;;;;;;5072151;28;20036;-67
2022/01/22 08:16:49;;;;;;;5.85;1.88;;;-4.80;99.90;;;;;;5072628;28;20029;-66
2022/01/22 08:19:16;;;;;;;3.15;1.98;;;-4.80;99.90;;;;;;5071983;28;20494;-66
2022/01/22 08:21:44;;;;;;;3.83;1.80;;;-4.80;99.90;;;;;;5072120;28;20032;-67
2022/01/22 08:24:10;;;;;;;6.40;2.00;;;-4.80;99.90;;;;;;5071943;28;20025;-66
2022/01/22 08:26:41;;;;;;;5.53;2.10;;;-4.80;99.90;;;;;;5072344;28;20073;-67
2022/01/22 08:29:07;;;;;;;;;;;-4.70;99.90;;;;;;5072624;28;20087;-66
2022/01/22 08:36:45;;;;;;;3.60;2.08;;;-4.20;99.90;;;;;;5072399;28;20115;-67
2022/01/22 08:39:14;;;;;;;2.95;1.75;;;-3.30;99.90;;;;;;5071946;28;20119;-67
2022/01/22 08:41:40;;;;;;;3.80;1.60;;;-3.60;99.90;;;;;;5072064;28;20021;-67
2022/01/22 08:44:05;;;;;;;7.45;2.00;;;-3.80;99.90;;;;;;5071912;28;20104;-67
2022/01/22 08:46:31;;;;;;;3.92;1.75;;;-3.80;99.90;;;;;;5072083;28;20032;-67
2022/01/22 08:48:58;;;;;;;4.82;1.70;;;-3.80;99.90;;;;;;5072015;28;20020;-68
2022/01/22 08:51:24;;;;;;;3.15;1.77;;;-4.00;99.90;;;;;;5072041;28;20078;-68
2022/01/22 08:53:50;;;;;;;8.93;1.67;;;-4.10;99.90;;;;;;5072188;28;20051;-67
2022/01/22 08:56:16;;;;;;;9.20;1.92;;;-4.20;99.90;;;;;;5051748;28;20025;-66
2022/01/22 08:58:43;;;;;;;4.90;1.90;;;-4.20;99.90;;;;;;5052153;28;20023;-66
2022/01/22 09:01:10;;;;;;;5.22;1.85;;;-4.00;99.90;;;;;;5052019;28;20057;-67
2022/01/22 09:03:36;;;;;;;25.40;2.75;;;-4.00;99.90;;;;;;5051360;28;20075;-69
2022/01/22 09:06:05;;;;;;;9.45;1.63;;;-3.70;99.90;;;;;;5055419;28;20017;-67
2022/01/22 09:08:31;;;;;;;2.50;1.77;;;-3.30;99.90;;;;;;5057148;28;20111;-68
2022/01/22 09:10:56;;;;;;;8.85;1.42;;;-3.50;99.90;;;;;;5054227;28;20101;-66
2022/01/22 09:13:24;;;;;;;8.82;3.63;;;-3.60;99.90;;;;;;5063016;28;20506;-69
2022/01/22 09:15:53;;;;;;;5.25;2.13;;;-3.70;99.90;;;;;;5069708;28;20032;-68
2022/01/22 09:18:19;;;;;;;1.80;1.40;;;-3.60;99.90;;;;;;5071253;28;20025;-68
2022/01/22 09:21:02;;;;;;;3.85;1.80;;;-3.40;99.90;;;;;;5066858;28;20055;-70
2022/01/22 09:23:29;;;;;;;2.97;1.70;;;-3.40;99.90;;;;;;5064754;28;20463;-70
2022/01/22 09:25:55;;;;;;;1.90;1.50;;;-3.50;99.90;;;;;;5067163;28;20372;-67
2022/01/22 09:28:21;;;;;;;5.57;2.15;;;-3.60;99.90;;;;;;5056896;28;20070;-68
2022/01/22 09:30:47;;;;;;;6.10;1.52;;;-2.90;99.90;;;;;;5052007;28;20041;-68
2022/01/22 09:33:14;;;;;;;2.40;1.70;;;-2.60;99.90;;;;;;5051454;28;20040;-68
2022/01/22 09:35:40;;;;;;;3.08;1.60;;;-2.80;99.90;;;;;;5051960;28;20021;-67
2022/01/22 09:38:06;;;;;;;5.15;1.48;;;-3.00;99.90;;;;;;5051439;28;20045;-68
2022/01/22 09:40:32;;;;;;;4.40;1.58;;;-3.10;99.90;;;;;;5051443;28;20043;-68
2022/01/22 09:42:59;;;;;;;3.10;1.25;;;-3.20;99.90;;;;;;5051766;28;20025;-68
2022/01/22 09:45:29;;;;;;;3.30;1.42;;;-3.20;99.90;;;;;;5051808;28;20025;-67
2022/01/22 09:47:59;;;;;;;3.88;2.05;;;-3.20;99.90;;;;;;5051763;28;20021;-68
2022/01/22 09:50:26;;;;;;;6.57;1.60;;;-3.20;99.90;;;;;;5051565;28;20418;-68
2022/01/22 09:52:52;;;;;;;4.13;1.33;;;-3.20;99.90;;;;;;5051594;28;20105;-67
2022/01/22 09:55:18;;;;;;;2.03;1.48;;;-3.20;99.90;;;;;;5051577;28;20048;-68
2022/01/22 09:57:45;;;;;;;2.65;1.20;;;-3.10;99.90;;;;;;5051777;28;20105;-68
2022/01/22 10:00:13;;;;;;;1.50;1.17;;;-3.00;99.90;;;;;;5051305;28;20021;-68
2022/01/22 10:02:45;;;;;;;3.30;1.20;;;-3.00;99.90;;;;;;5051428;28;20021;-68
2022/01/22 10:05:36;;;;;;;1.90;1.40;;;-2.90;99.90;;;;;;5051422;28;20068;-68
2022/01/22 10:08:24;;;;;;;1.88;1.05;;;-2.90;99.90;;;;;;5061662;28;20628;-68
2022/01/22 10:10:51;;;;;;;1.42;1.15;;;-2.90;99.90;;;;;;5071251;28;20478;-68
2022/01/22 10:13:36;;;;;;;2.33;1.30;;;-2.80;99.90;;;;;;5071003;28;20024;-68
2022/01/22 10:16:42;;;;;;;1.55;1.20;;;-2.70;99.90;;;;;;5056400;28;20114;-68
2022/01/22 10:19:22;;;;;;;15.63;10.82;;;-2.70;99.90;;;;;;5048606;28;20032;-68
2022/01/22 10:22:00;;;;;;;3.00;2.58;;;-2.60;99.90;;;;;;5074410;28;20103;-67
2022/01/22 10:24:45;;;;;;;2.85;2.15;;;-2.60;99.90;;;;;;5074610;28;20056;-68
2022/01/22 10:30:15;;;;;;;2.22;1.80;;;-2.50;99.90;;;;;;5060180;28;20033;-68
2022/01/22 10:35:23;;;;;;;5.38;2.10;;;-2.40;99.90;;;;;;5054686;28;20033;-68
2022/01/22 10:37:58;;;;;;;1.42;1.23;;;-2.40;99.90;;;;;;5054434;28;20495;-68
2022/01/22 10:40:37;;;;;;;6.47;1.23;;;-2.40;99.90;;;;;;5054619;28;20047;-68
2022/01/22 10:43:32;;;;;;;3.92;2.10;;;-2.40;99.90;;;;;;5053145;28;20387;-68
2022/01/22 10:49:00;;;;;;;2.33;1.33;;;-2.30;99.90;;;;;;5054237;28;20025;-68
2022/01/22 10:51:28;;;;;;;1.83;1.08;;;-2.30;99.90;;;;;;5054016;28;20461;-68
2022/01/22 10:53:59;;;;;;;1.88;1.10;;;-2.20;99.90;;;;;;5059359;28;20033;-66
2022/01/22 10:56:27;;;;;;;3.67;1.25;;;-2.20;99.90;;;;;;5052842;28;20084;-68
2022/01/22 10:58:57;;;;;;;1.73;1.40;;;-2.10;99.90;;;;;;5054059;28;20111;-68
2022/01/22 11:01:26;;;;;;;1.50;1.25;;;-2.10;99.90;;;;;;5053991;28;20021;-67
2022/01/22 11:04:22;;;;;;;1.65;1.40;;;-2.10;99.90;;;;;;5054221;28;20116;-67
2022/01/22 11:07:09;;;;;;;2.47;1.50;;;-2.10;99.90;;;;;;5053866;28;20040;-68
2022/01/22 11:09:35;;;;;;;1.70;1.33;;;-2.00;99.90;;;;;;5054058;28;20032;-68
2022/01/22 11:12:05;;;;;;;1.05;1.00;;;-2.00;99.90;;;;;;5057154;28;20032;-68
2022/01/22 11:14:37;;;;;;;2.03;1.42;;;-2.00;99.90;;;;;;5058836;28;20526;-70
2022/01/22 11:17:05;;;;;;;1.02;1.00;;;-2.00;99.90;;;;;;5053898;28;20032;-70
2022/01/22 11:19:35;;;;;;;2.47;1.10;;;-2.00;99.90;;;;;;5053844;28;20021;-72
2022/01/22 11:22:15;;;;;;;3.17;2.17;;;-2.00;99.90;;;;;;5073682;28;20078;-71
2022/01/22 11:24:43;;;;;;;8.18;4.03;;;-1.90;99.90;;;;;;5073551;28;20033;-72
2022/01/22 11:27:11;;;;;;;6.05;2.15;;;-1.90;99.90;;;;;;5073041;28;20038;-72
2022/01/22 11:29:40;;;;;;;2.25;2.05;;;-1.90;99.90;;;;;;5073589;28;20111;-72
2022/01/22 11:32:10;;;;;;;1.35;1.20;;;-1.90;99.90;;;;;;5059398;28;20100;-71
2022/01/22 11:34:38;;;;;;;2.70;1.07;;;-1.70;99.90;;;;;;5053223;28;20506;-71
2022/01/22 11:37:16;;;;;;;2.03;1.20;;;-1.20;99.90;;;;;;5056748;28;20283;-70
2022/01/22 11:39:42;;;;;;;1.52;1.25;;;-1.20;99.90;;;;;;5064619;28;20110;-69
2022/01/22 11:42:08;;;;;;;5.88;1.25;;;-1.40;99.90;;;;;;5060037;28;20044;-70
2022/01/22 11:45:03;;;;;;;1.92;1.00;;;-1.40;99.90;;;;;;5062912;28;20523;-71
2022/01/22 11:47:28;;;;;;;2.47;1.10;;;-1.50;99.90;;;;;;5063354;28;20028;-71
2022/01/22 11:50:09;;;;;;;4.90;1.05;;;-1.50;99.90;;;;;;5063790;28;20044;-71
2022/01/22 11:52:38;;;;;;;1.23;1.10;;;-1.60;99.90;;;;;;5061020;28;20476;-70
2022/01/22 11:55:13;;;;;;;2.60;1.13;;;-1.60;99.90;;;;;;5063004;28;20043;-69
2022/01/22 11:57:40;;;;;;;4.10;0.98;;;-1.60;99.90;;;;;;5066495;28;20383;-69
2022/01/22 12:00:27;;;;;;;2.97;1.45;;;-1.60;99.90;;;;;;5059607;28;20506;-69
2022/01/22 12:03:12;;;;;;;4.57;1.30;;;-1.70;99.90;;;;;;5052905;28;20503;-69
2022/01/22 12:05:53;;;;;;;1.42;1.23;;;-1.70;99.90;;;;;;5052533;28;20029;-68
2022/01/22 12:08:21;;;;;;;1.25;1.10;;;-1.70;99.90;;;;;;5052768;28;20036;-69
2022/01/22 12:16:39;;;;;;;3.08;1.25;;;-1.60;99.90;;;;;;5052908;28;20040;-69
2022/01/22 12:20:30;;;;;;;6.78;1.10;;;-1.60;99.90;;;;;;5052579;28;20044;-69
2022/01/22 12:22:37;;;;;;;3.05;1.08;;;-1.60;99.90;;;;;;5049352;28;20048;-69
2022/01/22 12:25:23;;;;;;;1.50;0.90;;;-1.60;99.90;;;;;;5066922;28;20017;-71
2022/01/22 12:27:51;;;;;;;1.80;1.08;;;-1.60;99.90;;;;;;5072433;28;20040;-69
2022/01/22 12:30:34;;;;;;;4.25;1.10;;;-1.60;99.90;;;;;;5072498;28;20345;-69
2022/01/22 12:33:00;;;;;;;0.90;0.90;;;-1.60;99.90;;;;;;5072815;28;20434;-68
2022/01/22 12:35:47;;;;;;;1.00;0.93;;;-1.60;99.90;;;;;;5063726;28;20364;-68
2022/01/22 12:40:57;;;;;;;1.30;1.00;;;-1.60;99.90;;;;;;5063700;28;20032;-71
2022/01/22 12:43:32;;;;;;;2.95;1.15;;;-1.60;99.90;;;;;;5072046;28;20027;-71
2022/01/22 12:46:03;;;;;;;1.58;1.10;;;-0.80;99.90;;;;;;5067388;28;20048;-72
2022/01/22 12:48:36;;;;;;;1.58;0.93;;;-1.00;99.90;;;;;;5060520;28;20017;-71
2022/01/22 12:51:07;;;;;;;1.52;1.10;;;-1.20;99.90;;;;;;5061208;28;20483;-71
2022/01/22 12:53:34;;;;;;;2.30;1.20;;;-1.30;99.90;;;;;;5063117;28;20036;-71
2022/01/22 12:56:23;;;;;;;1.33;1.10;;;-1.40;99.90;;;;;;5072011;28;20104;-69
2022/01/22 12:58:46;;;;;;;2.17;0.95;;;-1.40;99.90;;;;;;5072019;28;20029;-68
2022/01/22 13:01:27;;;;;;;1.58;1.00;;;-1.50;99.90;;;;;;5072253;28;20020;-68
2022/01/22 13:03:55;;;;;;;1.27;1.00;;;-1.30;99.90;;;;;;5071931;28;20070;-68
2022/01/22 13:06:26;;;;;;;3.45;1.10;;;-0.30;99.90;;;;;;5071709;28;20029;-68
2022/01/22 13:08:58;;;;;;;1.52;1.00;;;0.00;99.90;;;;;;5072004;28;20467;-68
2022/01/22 13:11:29;;;;;;;2.88;1.20;;;-0.20;99.90;;;;;;5071857;28;20529;-68
2022/01/22 13:13:56;;;;;;;3.15;1.27;;;-0.60;99.90;;;;;;5071768;28;20029;-68
2022/01/22 13:16:22;;;;;;;1.85;1.10;;;-0.80;99.90;;;;;;5071991;28;20079;-68
2022/01/22 13:19:00;;;;;;;1.10;1.00;;;-0.60;99.90;;;;;;5065965;28;20437;-68
2022/01/22 13:21:31;;;;;;;1.73;1.15;;;-0.60;99.90;;;;;;5063745;28;20029;-68
2022/01/22 13:24:07;;;;;;;1.35;1.25;;;-0.90;99.90;;;;;;5065277;28;20024;-68
2022/01/22 13:26:42;;;;;;;0.73;0.73;;;-1.00;99.90;;;;;;5062399;28;20021;-68
2022/01/22 13:29:37;;;;;;;5.05;1.23;;;-1.10;99.90;;;;;;5068217;28;20033;-68
2022/01/22 13:32:11;;;;;;;5.63;1.20;;;-1.20;99.90;;;;;;5069654;28;20111;-68
2022/01/22 13:38:29;;;;;;;2.85;1.40;;;-1.30;99.90;;;;;;5017240;28;20060;-71
2022/01/22 13:49:26;;;;;;;2.47;1.30;;;-1.00;99.90;;;;;;5056050;28;20769;-71
2022/01/22 13:52:23;;;;;;;1.57;1.30;;;-0.90;99.90;;;;;;5055525;28;20462;-71
2022/01/22 13:54:52;;;;;;;1.77;0.98;;;-1.10;99.90;;;;;;5053311;28;20099;-71
2022/01/22 13:57:24;;;;;;;1.90;1.20;;;-1.20;99.90;;;;;;5055489;28;20021;-71
2022/01/22 13:59:56;;;;;;;3.88;1.05;;;-1.30;99.90;;;;;;5065450;28;20475;-71
2022/01/22 14:02:52;;;;;;;2.03;1.27;;;-1.40;99.90;;;;;;5075207;28;20032;-71
2022/01/22 14:05:25;;;;;;;3.28;1.20;;;-1.40;99.90;;;;;;5075173;28;20487;-71
2022/01/22 14:07:59;;;;;;;1.13;1.00;;;-1.50;99.90;;;;;;5073934;28;20521;-71
2022/01/22 14:10:26;;;;;;;3.20;1.15;;;-1.50;99.90;;;;;;5070634;28;20032;-71
2022/01/22 14:12:57;;;;;;;3.97;1.10;;;-1.50;99.90;;;;;;5073362;28;20058;-71
2022/01/22 14:15:27;;;;;;;4.18;1.33;;;-1.60;99.90;;;;;;5073423;28;20036;-72
2022/01/22 14:18:09;;;;;;;2.73;1.07;;;-1.70;99.90;;;;;;5074951;28;20063;-72
2022/01/22 14:20:38;;;;;;;1.45;1.30;;;-1.70;99.90;;;;;;5075024;28;20259;-71
2022/01/22 14:23:17;;;;;;;1.17;0.95;;;-1.70;99.90;;;;;;5074775;28;20027;-71
2022/01/22 14:25:59;;;;;;;1.17;1.00;;;-1.60;99.90;;;;;;5074854;28;20025;-71
2022/01/22 14:28:50;;;;;;;1.70;1.20;;;-1.60;99.90;;;;;;5074925;28;20021;-71
2022/01/22 14:31:18;;;;;;;3.70;1.52;;;-1.70;99.90;;;;;;5074814;28;20094;-71
2022/01/22 14:33:44;;;;;;;4.28;1.35;;;-1.70;99.90;;;;;;5074524;28;20031;-70
2022/01/22 14:36:19;;;;;;;1.80;1.23;;;-1.50;99.90;;;;;;5074294;28;20028;-69
2022/01/22 14:39:03;;;;;;;1.73;0.90;;;-1.40;99.90;;;;;;5074244;28;20377;-69
2022/01/22 14:46:53;;;;;;;1.45;1.30;;;-1.50;99.90;;;;;;5073106;28;20028;-67
2022/01/22 14:49:29;;;;;;;1.33;1.20;;;-1.60;99.90;;;;;;5071734;28;20577;-67
2022/01/22 14:51:55;;;;;;;3.35;1.50;;;-1.70;99.90;;;;;;5074084;28;20031;-67
2022/01/22 14:54:22;;;;;;;1.40;1.20;;;-1.70;99.90;;;;;;5066068;28;20032;-67
2022/01/22 14:56:48;;;;;;;2.60;1.50;;;-1.70;99.90;;;;;;5064604;28;20021;-67
2022/01/22 14:59:14;;;;;;;1.50;1.20;;;-1.70;99.90;;;;;;5061802;28;20495;-66
2022/01/22 15:01:40;;;;;;;1.38;1.00;;;-1.80;99.90;;;;;;5062795;28;20028;-67
2022/01/22 15:04:05;;;;;;;7.40;1.38;;;-1.80;99.90;;;;;;5064934;28;20031;-66
2022/01/22 15:06:31;;;;;;;4.05;1.65;;;-1.80;99.90;;;;;;5065088;28;20021;-66
2022/01/22 15:08:57;;;;;;;2.67;1.45;;;-1.80;99.90;;;;;;5064114;28;20025;-66
2022/01/22 15:11:23;;;;;;;1.80;1.25;;;-1.80;99.90;;;;;;5074011;28;20027;-66
2022/01/22 15:13:48;;;;;;;2.78;1.40;;;-1.90;99.90;;;;;;5059896;28;20037;-66
2022/01/22 15:16:19;;;;;;;3.53;1.70;;;-1.90;99.90;;;;;;5053971;28;20021;-66
2022/01/22 15:21:11;;;;;;;4.85;1.48;;;-2.00;99.90;;;;;;5053837;28;20003;-64
2022/01/22 15:23:38;;;;;;;1.90;1.48;;;-2.00;99.90;;;;;;5052661;28;20064;-64
2022/01/22 15:26:05;;;;;;;3.72;1.95;;;-1.90;99.90;;;;;;5053553;28;20035;-64
2022/01/22 15:28:36;;;;;;;2.33;1.70;;;-1.90;99.90;;;;;;5053803;28;20075;-64
2022/01/22 15:31:02;;;;;;;;;;;-1.90;99.90;;;;;;5053937;28;20044;-64
2022/01/22 15:33:51;;;;;;;1.67;1.33;;;-2.00;99.90;;;;;;5053322;28;20405;-68
2022/01/22 15:36:17;;;;;;;1.92;1.42;;;-2.10;99.90;;;;;;5058588;28;20036;-67
2022/01/22 15:38:42;;;;;;;2.95;1.40;;;-2.20;99.90;;;;;;5062012;28;20496;-67
2022/01/22 15:41:08;;;;;;;2.78;1.23;;;-2.30;99.90;;;;;;5063809;28;20099;-67
2022/01/22 15:43:34;;;;;;;3.67;1.40;;;-2.30;99.90;;;;;;5063666;28;20025;-68
2022/01/22 15:45:59;;;;;;;6.63;2.13;;;-2.20;99.90;;;;;;5062785;28;20032;-63
2022/01/22 15:48:26;;;;;;;2.75;1.52;;;-2.20;99.90;;;;;;5069910;28;20017;-67
2022/01/22 15:50:52;;;;;;;4.03;1.80;;;-2.20;99.90;;;;;;5071286;28;20029;-67
2022/01/22 15:53:18;;;;;;;2.00;1.30;;;-2.20;99.90;;;;;;5062978;28;20028;-68
2022/01/22 15:55:49;;;;;;;4.63;1.65;;;-2.20;99.90;;;;;;5061719;28;20501;-67
2022/01/22 15:58:14;;;;;;;3.42;1.55;;;-2.30;99.90;;;;;;5061756;28;20484;-69